This is the latest recevied weather packets stored in our database for station/object KF6RAL-6. If no packets are shown the sender has not sent any weather packets the latest 10 day(s).
| Time | Temp. | Humidity | Pressure | Rain* | Wind** | Luminosity | Snow |
|---|---|---|---|---|---|---|---|
| 1787989042 | 18.89° C | 80% | 1016.9 hPa | 0 mm | - | - | - |
| 1787988621 | 18.89° C | 81% | 1017.1 hPa | 0 mm | - | - | - |
| 1787988200 | 18.89° C | 82% | 1017.3 hPa | 0 mm | - | - | - |
| 1787987779 | 18.89° C | 82% | 1017.2 hPa | 0 mm | - | - | - |
| 1787987358 | 18.89° C | 82% | 1017.7 hPa | 0 mm | - | - | - |
| 1787986937 | 19.44° C | 82% | 1018.4 hPa | 0 mm | - | - | - |
| 1787986516 | 19.44° C | 81% | 1019.2 hPa | 0 mm | - | - | - |
| 1787986095 | 19.44° C | 80% | 1018.4 hPa | 0 mm | - | - | - |
| 1787985674 | 18.89° C | 81% | 1018.9 hPa | 0 mm | - | - | - |
| 1787985253 | 18.89° C | 83% | 1018.4 hPa | 0.25 mm | - | - | - |
| 1787984832 | 19.44° C | 83% | 1017.5 hPa | 0.51 mm | - | - | - |
| 1787984411 | 19.44° C | 82% | 1017.3 hPa | 0.76 mm | - | - | - |
| 1787983990 | 19.44° C | 81% | 1017.5 hPa | 3.81 mm | - | - | - |
| 1787983569 | 19.44° C | 80% | 1018.3 hPa | 5.33 mm | - | - | - |
| 1787983148 | 20° C | 79% | 1018.4 hPa | 5.33 mm | - | - | - |
| 1787982727 | 20° C | 79% | 1018.4 hPa | 5.33 mm | - | - | - |
| 1787982317 | 19.44° C | 81% | 1019 hPa | 5.33 mm | - | - | - |
| 1787981885 | 19.44° C | 82% | 1019.2 hPa | 5.33 mm | - | - | - |
| 1787981464 | 20° C | 82% | 1019.1 hPa | 5.08 mm | - | - | - |
| 1787981043 | 20° C | 81% | 1019 hPa | 4.83 mm | - | - | - |
| 1787980622 | 21.11° C | 74% | 1019.3 hPa | 3.81 mm | - | - | - |
| 1787980201 | 22.22° C | 63% | 1019 hPa | 0 mm | - | - | - |
| 1787979781 | 22.22° C | 61% | 1017.8 hPa | 0 mm | - | - | - |
| 1787979359 | 22.22° C | 61% | 1017.6 hPa | 0 mm | - | - | - |
| 1787978938 | 22.22° C | 61% | 1016.9 hPa | 0 mm | - | - | - |
* Rain latest hour (hover to see other rain measurements)
** Current wind speed in m/s (hover to see current wind gust speed)